Gorlitz Airport


Codes: EDBX/
Name: Gorlitz Airport
City: Gorlitz
Country: Germany
Elevation: 778 ft.
Wikipedia:

Photos at Gorlitz Airport


   Photos courtesy of SpottingLog. You can add your own sightings and photos by signing up for a free trial today.



No photos found.

Weather at Gorlitz Airport


Time (UTC)DescriptionTempratureWindCloud coverageVisibilityPressureHumidity
21-Jun-2024 12:00Broken Clouds30°C7 mph, E76%10000m1017hPa52%
21-Jun-2024 15:00Light Rain28°C18 mph, W84%2271m1015hPa58%
21-Jun-2024 18:00Heavy Intensity Rain22°C7 mph, SE92%10000m1013hPa80%
21-Jun-2024 21:00Light Rain18°C4 mph, SE96%10000m1011hPa96%
22-Jun-2024 00:00Light Rain17°C11 mph, SW91%10000m1011hPa91%
22-Jun-2024 03:00Light Rain17°C11 mph, SW92%10000m1011hPa92%
22-Jun-2024 06:00Moderate Rain16°C11 mph, W96%6062m1011hPa97%
22-Jun-2024 09:00Moderate Rain15°C11 mph, W100%10000m1013hPa92%
22-Jun-2024 12:00Overcast Clouds20°C16 mph, W92%10000m1013hPa57%
22-Jun-2024 15:00Clear Sky22°C13 mph, W0%10000m1011hPa53%
22-Jun-2024 18:00Clear Sky19°C7 mph, W5%10000m1012hPa71%
22-Jun-2024 21:00Clear Sky15°C2 mph, W2%10000m1013hPa76%
23-Jun-2024 00:00Clear Sky13°C7 mph, W5%10000m1014hPa82%
23-Jun-2024 03:00Scattered Clouds12°C4 mph, W30%10000m1016hPa92%
23-Jun-2024 06:00Broken Clouds16°C11 mph, NW51%10000m1016hPa84%
23-Jun-2024 09:00Overcast Clouds19°C9 mph, NW86%10000m1017hPa68%
23-Jun-2024 12:00Overcast Clouds21°C9 mph, NW95%10000m1017hPa58%
23-Jun-2024 15:00Overcast Clouds21°C9 mph, NW92%10000m1017hPa61%
23-Jun-2024 18:00Overcast Clouds19°C7 mph, NW87%10000m1017hPa71%
23-Jun-2024 21:00Few Clouds14°C4 mph, NW23%10000m1019hPa84%
24-Jun-2024 00:00Few Clouds13°C0 mph, NE12%10000m1020hPa90%
24-Jun-2024 03:00Scattered Clouds12°C0 mph, W29%10000m1020hPa91%
24-Jun-2024 06:00Few Clouds16°C2 mph, NW17%10000m1020hPa78%
24-Jun-2024 09:00Broken Clouds20°C7 mph, N55%10000m1020hPa61%
24-Jun-2024 12:00Broken Clouds23°C7 mph, N55%10000m1019hPa50%
24-Jun-2024 15:00Broken Clouds24°C4 mph, NE58%10000m1017hPa46%
24-Jun-2024 18:00Broken Clouds19°C9 mph, E76%10000m1018hPa70%
24-Jun-2024 21:00Overcast Clouds15°C7 mph, E100%10000m1018hPa83%
25-Jun-2024 00:00Broken Clouds13°C4 mph, E80%10000m1018hPa88%
25-Jun-2024 03:00Clear Sky13°C4 mph, E2%10000m1018hPa90%
25-Jun-2024 06:00Clear Sky18°C9 mph, E0%10000m1017hPa75%
25-Jun-2024 09:00Clear Sky22°C16 mph, E2%10000m1016hPa59%
25-Jun-2024 12:00Few Clouds23°C18 mph, E19%10000m1015hPa53%
25-Jun-2024 15:00Clear Sky24°C16 mph, E8%10000m1013hPa53%
25-Jun-2024 18:00Clear Sky21°C11 mph, E4%10000m1013hPa64%
25-Jun-2024 21:00Few Clouds18°C13 mph, E23%10000m1013hPa77%
26-Jun-2024 00:00Few Clouds16°C9 mph, E20%10000m1011hPa86%
26-Jun-2024 03:00Scattered Clouds15°C11 mph, E45%10000m1010hPa90%
26-Jun-2024 06:00Broken Clouds19°C13 mph, E63%10000m1010hPa76%
26-Jun-2024 09:00Broken Clouds24°C13 mph, E65%10000m1009hPa60%